DFOO

Bobo Dioulasso Airport

Airport
ICAO code
DFOO
IATA Code
BOY
Summary
ICAO Region
AFI
ICAO Territory
Location

Bobo Dioulasso,

Serving
Bobo Dioulasso
Elevation
1511 ft
Coordinates
11° 9' 38" N , 4° 19' 47" W
Metar
DFOO 240600Z VRB02KT CAVOK 20/M03 Q1013

Description

Bobo Dioulasso Airport is an airport in Bobo Dioulasso, Burkina Faso.

Runways

Designator Length Width Surface Rops
6/24 3300 45 ASP No/No

Airport map

Aerial View

SKYbrary Partners:

Safety knowledge contributed by: